Lepel, Belarus
Current Conditions -  °F | °C
As of 6:00 AM on Saturday 25 Oct 2014 (Local Time) from UMMS Reporting Station
Clear Clear  
Wind Chill:   Ceiling: Unl
Heat Index: 16°   Visibility: 6mi
Dew Point: 14°   Wind: 4mph
Humidity: 93%   Direction: 130°SE
Pressure: 30.56"   Gusts: NA
Location:  54.89°N, 28.7°E
Report Text: UMMS 250400Z 13002MPS CAVOK M09/M10 Q1035 R31/CLRD// NOSIG
Loading
Personal Weather Stations






























Interactive Weather Map
Tropical Storm Tracking
New forecast layout! Learn more

10-Day Weather Forecast

Advertisements
Track Severe Weather on mobile